sensor_id;sensor_type;location;lat;lon;timestamp;P1;durP1;ratioP1;P2;durP2;ratioP2
62353;SDS011;48391;49.184;2.418;2023-04-25T00:00:51;0.73;;;0.50;;
62353;SDS011;48391;49.184;2.418;2023-04-25T00:03:17;0.30;;;0.30;;
62353;SDS011;48391;49.184;2.418;2023-04-25T00:05:44;0.63;;;0.63;;
62353;SDS011;48391;49.184;2.418;2023-04-25T00:08:10;0.28;;;0.28;;
62353;SDS011;48391;49.184;2.418;2023-04-25T00:10:36;0.73;;;0.60;;
62353;SDS011;48391;49.184;2.418;2023-04-25T00:13:02;0.52;;;0.40;;
62353;SDS011;48391;49.184;2.418;2023-04-25T00:15:28;0.93;;;0.90;;
62353;SDS011;48391;49.184;2.418;2023-04-25T00:17:57;0.50;;;0.47;;
62353;SDS011;48391;49.184;2.418;2023-04-25T00:20:23;0.50;;;0.50;;
62353;SDS011;48391;49.184;2.418;2023-04-25T00:22:50;0.43;;;0.35;;
62353;SDS011;48391;49.184;2.418;2023-04-25T00:25:18;0.40;;;0.40;;
62353;SDS011;48391;49.184;2.418;2023-04-25T00:27:44;0.60;;;0.60;;
62353;SDS011;48391;49.184;2.418;2023-04-25T00:30:10;0.47;;;0.47;;
62353;SDS011;48391;49.184;2.418;2023-04-25T00:32:36;4.88;;;1.58;;
62353;SDS011;48391;49.184;2.418;2023-04-25T00:35:03;0.38;;;0.38;;
62353;SDS011;48391;49.184;2.418;2023-04-25T00:37:29;0.43;;;0.43;;
62353;SDS011;48391;49.184;2.418;2023-04-25T00:39:55;0.60;;;0.60;;
62353;SDS011;48391;49.184;2.418;2023-04-25T00:42:22;1.10;;;0.80;;
62353;SDS011;48391;49.184;2.418;2023-04-25T00:44:48;1.20;;;0.73;;
62353;SDS011;48391;49.184;2.418;2023-04-25T00:47:14;1.20;;;0.90;;
62353;SDS011;48391;49.184;2.418;2023-04-25T00:49:41;1.88;;;0.93;;
62353;SDS011;48391;49.184;2.418;2023-04-25T00:52:07;1.40;;;1.30;;
62353;SDS011;48391;49.184;2.418;2023-04-25T00:54:33;1.50;;;1.30;;
62353;SDS011;48391;49.184;2.418;2023-04-25T00:56:59;1.27;;;1.17;;
62353;SDS011;48391;49.184;2.418;2023-04-25T00:59:26;1.02;;;0.82;;
62353;SDS011;48391;49.184;2.418;2023-04-25T01:01:52;1.23;;;1.13;;
62353;SDS011;48391;49.184;2.418;2023-04-25T01:04:18;1.40;;;0.88;;
62353;SDS011;48391;49.184;2.418;2023-04-25T01:06:45;1.33;;;0.90;;
62353;SDS011;48391;49.184;2.418;2023-04-25T01:09:11;0.80;;;0.77;;
62353;SDS011;48391;49.184;2.418;2023-04-25T01:11:38;1.10;;;0.80;;
62353;SDS011;48391;49.184;2.418;2023-04-25T01:14:05;0.50;;;0.50;;
62353;SDS011;48391;49.184;2.418;2023-04-25T01:16:31;0.90;;;0.80;;
62353;SDS011;48391;49.184;2.418;2023-04-25T01:18:58;0.88;;;0.88;;
62353;SDS011;48391;49.184;2.418;2023-04-25T01:21:24;0.70;;;0.70;;
62353;SDS011;48391;49.184;2.418;2023-04-25T01:23:53;0.88;;;0.70;;
62353;SDS011;48391;49.184;2.418;2023-04-25T01:26:19;1.42;;;0.90;;
62353;SDS011;48391;49.184;2.418;2023-04-25T01:28:47;0.70;;;0.70;;
62353;SDS011;48391;49.184;2.418;2023-04-25T01:31:13;2.47;;;1.10;;
62353;SDS011;48391;49.184;2.418;2023-04-25T01:33:40;1.35;;;1.10;;
62353;SDS011;48391;49.184;2.418;2023-04-25T01:36:06;1.15;;;1.05;;
62353;SDS011;48391;49.184;2.418;2023-04-25T01:38:32;2.20;;;1.30;;
62353;SDS011;48391;49.184;2.418;2023-04-25T01:40:58;0.90;;;0.80;;
62353;SDS011;48391;49.184;2.418;2023-04-25T01:43:24;1.20;;;1.10;;
62353;SDS011;48391;49.184;2.418;2023-04-25T01:45:51;0.73;;;0.70;;
62353;SDS011;48391;49.184;2.418;2023-04-25T01:48:17;1.05;;;0.98;;
62353;SDS011;48391;49.184;2.418;2023-04-25T01:50:44;1.67;;;1.00;;
62353;SDS011;48391;49.184;2.418;2023-04-25T01:53:10;0.70;;;0.70;;
62353;SDS011;48391;49.184;2.418;2023-04-25T01:55:38;1.13;;;0.90;;
62353;SDS011;48391;49.184;2.418;2023-04-25T01:58:04;1.27;;;1.17;;
62353;SDS011;48391;49.184;2.418;2023-04-25T02:00:38;1.35;;;0.90;;
62353;SDS011;48391;49.184;2.418;2023-04-25T02:03:05;1.15;;;0.70;;
62353;SDS011;48391;49.184;2.418;2023-04-25T02:05:35;0.85;;;0.85;;
62353;SDS011;48391;49.184;2.418;2023-04-25T02:10:37;1.02;;;0.93;;
62353;SDS011;48391;49.184;2.418;2023-04-25T02:13:04;1.80;;;1.20;;
62353;SDS011;48391;49.184;2.418;2023-04-25T02:15:30;0.70;;;0.70;;
62353;SDS011;48391;49.184;2.418;2023-04-25T02:17:56;1.02;;;0.80;;
62353;SDS011;48391;49.184;2.418;2023-04-25T02:20:23;1.05;;;0.80;;
62353;SDS011;48391;49.184;2.418;2023-04-25T02:22:49;1.00;;;0.88;;
62353;SDS011;48391;49.184;2.418;2023-04-25T02:25:16;0.90;;;0.75;;
62353;SDS011;48391;49.184;2.418;2023-04-25T02:27:42;0.63;;;0.63;;
62353;SDS011;48391;49.184;2.418;2023-04-25T02:30:08;0.90;;;0.60;;
62353;SDS011;48391;49.184;2.418;2023-04-25T02:32:34;0.82;;;0.80;;
62353;SDS011;48391;49.184;2.418;2023-04-25T02:35:01;1.05;;;0.73;;
62353;SDS011;48391;49.184;2.418;2023-04-25T02:37:31;0.33;;;0.33;;
62353;SDS011;48391;49.184;2.418;2023-04-25T02:39:57;0.93;;;0.55;;
62353;SDS011;48391;49.184;2.418;2023-04-25T02:42:23;0.77;;;0.60;;
62353;SDS011;48391;49.184;2.418;2023-04-25T02:44:49;0.85;;;0.73;;
62353;SDS011;48391;49.184;2.418;2023-04-25T02:47:15;0.80;;;0.68;;
62353;SDS011;48391;49.184;2.418;2023-04-25T02:49:41;0.82;;;0.82;;
62353;SDS011;48391;49.184;2.418;2023-04-25T02:52:07;0.60;;;0.50;;
62353;SDS011;48391;49.184;2.418;2023-04-25T02:54:33;0.77;;;0.63;;
62353;SDS011;48391;49.184;2.418;2023-04-25T02:56:59;0.70;;;0.68;;
62353;SDS011;48391;49.184;2.418;2023-04-25T02:59:27;0.35;;;0.30;;
62353;SDS011;48391;49.184;2.418;2023-04-25T03:01:53;0.82;;;0.70;;
62353;SDS011;48391;49.184;2.418;2023-04-25T03:04:19;1.92;;;0.73;;
62353;SDS011;48391;49.184;2.418;2023-04-25T03:06:46;0.82;;;0.73;;
62353;SDS011;48391;49.184;2.418;2023-04-25T03:09:12;0.47;;;0.47;;
62353;SDS011;48391;49.184;2.418;2023-04-25T03:11:38;0.73;;;0.73;;
62353;SDS011;48391;49.184;2.418;2023-04-25T03:14:04;0.70;;;0.43;;
62353;SDS011;48391;49.184;2.418;2023-04-25T03:16:30;0.50;;;0.45;;
62353;SDS011;48391;49.184;2.418;2023-04-25T03:18:56;0.75;;;0.55;;
62353;SDS011;48391;49.184;2.418;2023-04-25T03:21:23;0.75;;;0.57;;
62353;SDS011;48391;49.184;2.418;2023-04-25T03:23:49;1.02;;;1.00;;
62353;SDS011;48391;49.184;2.418;2023-04-25T03:26:15;0.63;;;0.63;;
62353;SDS011;48391;49.184;2.418;2023-04-25T03:28:41;0.60;;;0.60;;
62353;SDS011;48391;49.184;2.418;2023-04-25T03:31:07;0.30;;;0.30;;
62353;SDS011;48391;49.184;2.418;2023-04-25T03:33:33;0.85;;;0.68;;
62353;SDS011;48391;49.184;2.418;2023-04-25T03:35:59;0.40;;;0.40;;
62353;SDS011;48391;49.184;2.418;2023-04-25T03:38:25;0.28;;;0.28;;
62353;SDS011;48391;49.184;2.418;2023-04-25T03:40:51;0.40;;;0.30;;
62353;SDS011;48391;49.184;2.418;2023-04-25T03:43:18;0.50;;;0.32;;
62353;SDS011;48391;49.184;2.418;2023-04-25T03:45:44;0.40;;;0.38;;
62353;SDS011;48391;49.184;2.418;2023-04-25T03:48:11;0.60;;;0.40;;
62353;SDS011;48391;49.184;2.418;2023-04-25T03:50:37;1.10;;;1.00;;
62353;SDS011;48391;49.184;2.418;2023-04-25T03:53:03;0.90;;;0.80;;
62353;SDS011;48391;49.184;2.418;2023-04-25T03:55:29;1.27;;;0.85;;
62353;SDS011;48391;49.184;2.418;2023-04-25T03:57:55;2.45;;;1.42;;
62353;SDS011;48391;49.184;2.418;2023-04-25T04:00:22;1.10;;;0.93;;
62353;SDS011;48391;49.184;2.418;2023-04-25T04:02:49;0.88;;;0.70;;
62353;SDS011;48391;49.184;2.418;2023-04-25T04:05:15;1.42;;;0.50;;
62353;SDS011;48391;49.184;2.418;2023-04-25T04:07:41;0.68;;;0.68;;
62353;SDS011;48391;49.184;2.418;2023-04-25T04:10:08;1.65;;;0.80;;
62353;SDS011;48391;49.184;2.418;2023-04-25T04:12:34;0.82;;;0.45;;
62353;SDS011;48391;49.184;2.418;2023-04-25T04:15:00;0.75;;;0.60;;
62353;SDS011;48391;49.184;2.418;2023-04-25T04:17:26;0.40;;;0.35;;
62353;SDS011;48391;49.184;2.418;2023-04-25T04:19:52;0.35;;;0.35;;
62353;SDS011;48391;49.184;2.418;2023-04-25T04:22:18;1.02;;;0.63;;
62353;SDS011;48391;49.184;2.418;2023-04-25T04:24:44;1.75;;;0.65;;
62353;SDS011;48391;49.184;2.418;2023-04-25T04:27:11;1.10;;;0.60;;
62353;SDS011;48391;49.184;2.418;2023-04-25T04:29:37;1.00;;;0.82;;
62353;SDS011;48391;49.184;2.418;2023-04-25T04:32:03;1.15;;;0.70;;
62353;SDS011;48391;49.184;2.418;2023-04-25T04:34:29;0.80;;;0.75;;
62353;SDS011;48391;49.184;2.418;2023-04-25T04:36:56;0.73;;;0.60;;
62353;SDS011;48391;49.184;2.418;2023-04-25T04:39:22;0.40;;;0.22;;
62353;SDS011;48391;49.184;2.418;2023-04-25T04:41:48;0.50;;;0.50;;
62353;SDS011;48391;49.184;2.418;2023-04-25T04:44:15;0.75;;;0.57;;
62353;SDS011;48391;49.184;2.418;2023-04-25T04:46:41;1.00;;;0.73;;
62353;SDS011;48391;49.184;2.418;2023-04-25T04:49:09;1.42;;;0.50;;
62353;SDS011;48391;49.184;2.418;2023-04-25T04:51:35;1.00;;;0.50;;
62353;SDS011;48391;49.184;2.418;2023-04-25T04:54:02;0.90;;;0.57;;
62353;SDS011;48391;49.184;2.418;2023-04-25T04:56:28;0.38;;;0.20;;
62353;SDS011;48391;49.184;2.418;2023-04-25T04:58:56;0.20;;;0.20;;
62353;SDS011;48391;49.184;2.418;2023-04-25T05:01:22;1.45;;;0.40;;
62353;SDS011;48391;49.184;2.418;2023-04-25T05:03:48;1.80;;;0.30;;
62353;SDS011;48391;49.184;2.418;2023-04-25T05:06:15;1.25;;;0.40;;
62353;SDS011;48391;49.184;2.418;2023-04-25T05:08:41;0.40;;;0.40;;
62353;SDS011;48391;49.184;2.418;2023-04-25T05:11:07;1.00;;;0.45;;
62353;SDS011;48391;49.184;2.418;2023-04-25T05:13:33;1.33;;;1.00;;
62353;SDS011;48391;49.184;2.418;2023-04-25T05:15:59;1.23;;;1.08;;
62353;SDS011;48391;49.184;2.418;2023-04-25T05:18:25;1.05;;;1.00;;
62353;SDS011;48391;49.184;2.418;2023-04-25T05:20:51;1.15;;;1.08;;
62353;SDS011;48391;49.184;2.418;2023-04-25T05:23:18;0.80;;;0.80;;
62353;SDS011;48391;49.184;2.418;2023-04-25T05:25:44;1.85;;;0.82;;
62353;SDS011;48391;49.184;2.418;2023-04-25T05:28:11;0.85;;;0.85;;
62353;SDS011;48391;49.184;2.418;2023-04-25T05:30:37;1.05;;;0.75;;
62353;SDS011;48391;49.184;2.418;2023-04-25T05:33:04;3.25;;;0.68;;
62353;SDS011;48391;49.184;2.418;2023-04-25T05:35:30;0.57;;;0.55;;
62353;SDS011;48391;49.184;2.418;2023-04-25T05:37:56;0.90;;;0.90;;
62353;SDS011;48391;49.184;2.418;2023-04-25T05:40:22;1.40;;;1.30;;
62353;SDS011;48391;49.184;2.418;2023-04-25T05:42:48;3.67;;;1.75;;
62353;SDS011;48391;49.184;2.418;2023-04-25T05:45:14;1.98;;;1.58;;
62353;SDS011;48391;49.184;2.418;2023-04-25T05:47:40;3.40;;;2.17;;
62353;SDS011;48391;49.184;2.418;2023-04-25T05:50:06;3.63;;;2.92;;
62353;SDS011;48391;49.184;2.418;2023-04-25T05:52:33;2.78;;;1.80;;
62353;SDS011;48391;49.184;2.418;2023-04-25T05:54:59;2.70;;;2.38;;
62353;SDS011;48391;49.184;2.418;2023-04-25T05:57:26;2.40;;;2.15;;
62353;SDS011;48391;49.184;2.418;2023-04-25T05:59:52;3.05;;;2.10;;
62353;SDS011;48391;49.184;2.418;2023-04-25T06:02:19;3.50;;;2.30;;
62353;SDS011;48391;49.184;2.418;2023-04-25T06:04:51;5.82;;;3.05;;
62353;SDS011;48391;49.184;2.418;2023-04-25T06:07:18;2.92;;;2.63;;
62353;SDS011;48391;49.184;2.418;2023-04-25T06:09:45;5.18;;;3.13;;
62353;SDS011;48391;49.184;2.418;2023-04-25T06:12:11;9.18;;;5.55;;
62353;SDS011;48391;49.184;2.418;2023-04-25T06:14:37;8.80;;;5.47;;
62353;SDS011;48391;49.184;2.418;2023-04-25T06:17:03;9.00;;;4.93;;
62353;SDS011;48391;49.184;2.418;2023-04-25T06:19:33;15.23;;;7.07;;
62353;SDS011;48391;49.184;2.418;2023-04-25T06:21:59;9.05;;;5.70;;
62353;SDS011;48391;49.184;2.418;2023-04-25T06:24:26;6.90;;;5.15;;
62353;SDS011;48391;49.184;2.418;2023-04-25T06:26:52;8.30;;;4.40;;
62353;SDS011;48391;49.184;2.418;2023-04-25T06:29:18;7.03;;;4.80;;
62353;SDS011;48391;49.184;2.418;2023-04-25T06:31:44;11.75;;;6.10;;
62353;SDS011;48391;49.184;2.418;2023-04-25T06:34:10;12.73;;;7.13;;
62353;SDS011;48391;49.184;2.418;2023-04-25T06:36:36;10.20;;;6.05;;
62353;SDS011;48391;49.184;2.418;2023-04-25T06:39:02;12.10;;;7.00;;
62353;SDS011;48391;49.184;2.418;2023-04-25T06:41:28;15.35;;;7.63;;
62353;SDS011;48391;49.184;2.418;2023-04-25T06:43:54;9.48;;;6.78;;
62353;SDS011;48391;49.184;2.418;2023-04-25T06:46:20;9.10;;;6.13;;
62353;SDS011;48391;49.184;2.418;2023-04-25T06:48:46;10.63;;;8.07;;
62353;SDS011;48391;49.184;2.418;2023-04-25T06:51:12;12.75;;;8.10;;
62353;SDS011;48391;49.184;2.418;2023-04-25T06:53:39;14.38;;;7.10;;
62353;SDS011;48391;49.184;2.418;2023-04-25T06:56:05;6.78;;;5.97;;
62353;SDS011;48391;49.184;2.418;2023-04-25T06:58:31;9.20;;;5.25;;
62353;SDS011;48391;49.184;2.418;2023-04-25T07:00:57;15.25;;;7.47;;
62353;SDS011;48391;49.184;2.418;2023-04-25T07:03:23;12.95;;;7.47;;
62353;SDS011;48391;49.184;2.418;2023-04-25T07:05:49;10.35;;;7.70;;
62353;SDS011;48391;49.184;2.418;2023-04-25T07:08:16;12.98;;;7.55;;
62353;SDS011;48391;49.184;2.418;2023-04-25T07:10:44;11.80;;;6.90;;
62353;SDS011;48391;49.184;2.418;2023-04-25T07:13:11;10.05;;;6.28;;
62353;SDS011;48391;49.184;2.418;2023-04-25T07:15:37;8.52;;;5.78;;
62353;SDS011;48391;49.184;2.418;2023-04-25T07:18:03;12.32;;;6.53;;
62353;SDS011;48391;49.184;2.418;2023-04-25T07:20:29;7.65;;;5.63;;
62353;SDS011;48391;49.184;2.418;2023-04-25T07:22:56;7.53;;;4.70;;
62353;SDS011;48391;49.184;2.418;2023-04-25T07:25:22;5.80;;;4.20;;
62353;SDS011;48391;49.184;2.418;2023-04-25T07:27:48;7.18;;;4.88;;
62353;SDS011;48391;49.184;2.418;2023-04-25T07:30:14;8.23;;;3.67;;
62353;SDS011;48391;49.184;2.418;2023-04-25T07:32:40;7.75;;;5.13;;
62353;SDS011;48391;49.184;2.418;2023-04-25T07:35:06;8.52;;;5.40;;
62353;SDS011;48391;49.184;2.418;2023-04-25T07:37:35;7.57;;;5.38;;
62353;SDS011;48391;49.184;2.418;2023-04-25T07:40:02;12.45;;;4.72;;
62353;SDS011;48391;49.184;2.418;2023-04-25T07:42:31;7.72;;;3.67;;
62353;SDS011;48391;49.184;2.418;2023-04-25T07:44:58;8.50;;;4.00;;
62353;SDS011;48391;49.184;2.418;2023-04-25T07:47:24;7.00;;;4.28;;
62353;SDS011;48391;49.184;2.418;2023-04-25T07:49:50;6.07;;;3.70;;
62353;SDS011;48391;49.184;2.418;2023-04-25T07:52:16;12.60;;;4.38;;
62353;SDS011;48391;49.184;2.418;2023-04-25T07:54:42;8.57;;;3.70;;
62353;SDS011;48391;49.184;2.418;2023-04-25T07:57:08;7.95;;;4.60;;
62353;SDS011;48391;49.184;2.418;2023-04-25T07:59:34;9.15;;;4.20;;
62353;SDS011;48391;49.184;2.418;2023-04-25T08:02:01;12.43;;;4.38;;
62353;SDS011;48391;49.184;2.418;2023-04-25T08:04:27;10.55;;;3.13;;
62353;SDS011;48391;49.184;2.418;2023-04-25T08:06:53;5.97;;;3.00;;
62353;SDS011;48391;49.184;2.418;2023-04-25T08:09:20;7.60;;;3.75;;
62353;SDS011;48391;49.184;2.418;2023-04-25T08:11:46;7.22;;;3.22;;
62353;SDS011;48391;49.184;2.418;2023-04-25T08:14:12;12.05;;;4.75;;
62353;SDS011;48391;49.184;2.418;2023-04-25T08:16:38;6.00;;;3.40;;
62353;SDS011;48391;49.184;2.418;2023-04-25T08:19:05;5.20;;;3.03;;
62353;SDS011;48391;49.184;2.418;2023-04-25T08:21:31;7.03;;;3.42;;
62353;SDS011;48391;49.184;2.418;2023-04-25T08:23:57;9.85;;;3.45;;
62353;SDS011;48391;49.184;2.418;2023-04-25T08:26:26;9.32;;;3.70;;
62353;SDS011;48391;49.184;2.418;2023-04-25T08:28:52;9.75;;;3.60;;
62353;SDS011;48391;49.184;2.418;2023-04-25T08:31:18;5.13;;;2.95;;
62353;SDS011;48391;49.184;2.418;2023-04-25T08:33:44;8.93;;;3.88;;
62353;SDS011;48391;49.184;2.418;2023-04-25T08:36:10;12.48;;;3.72;;
62353;SDS011;48391;49.184;2.418;2023-04-25T08:38:36;6.25;;;3.53;;
62353;SDS011;48391;49.184;2.418;2023-04-25T08:41:03;11.15;;;5.15;;
62353;SDS011;48391;49.184;2.418;2023-04-25T08:43:29;9.30;;;5.10;;
62353;SDS011;48391;49.184;2.418;2023-04-25T08:45:58;6.90;;;3.92;;
62353;SDS011;48391;49.184;2.418;2023-04-25T08:48:28;7.38;;;3.03;;
62353;SDS011;48391;49.184;2.418;2023-04-25T08:50:55;12.50;;;3.72;;
62353;SDS011;48391;49.184;2.418;2023-04-25T08:53:22;6.50;;;3.78;;
62353;SDS011;48391;49.184;2.418;2023-04-25T08:55:50;6.90;;;2.92;;
62353;SDS011;48391;49.184;2.418;2023-04-25T08:58:18;5.93;;;2.92;;
62353;SDS011;48391;49.184;2.418;2023-04-25T09:00:45;7.93;;;3.13;;
62353;SDS011;48391;49.184;2.418;2023-04-25T09:03:12;6.95;;;2.85;;
62353;SDS011;48391;49.184;2.418;2023-04-25T09:05:39;5.20;;;2.55;;
62353;SDS011;48391;49.184;2.418;2023-04-25T09:08:05;5.47;;;2.15;;
62353;SDS011;48391;49.184;2.418;2023-04-25T09:10:32;4.25;;;2.08;;
62353;SDS011;48391;49.184;2.418;2023-04-25T09:13:02;9.07;;;3.05;;
62353;SDS011;48391;49.184;2.418;2023-04-25T09:15:29;2.55;;;2.30;;
62353;SDS011;48391;49.184;2.418;2023-04-25T09:17:57;6.72;;;2.30;;
62353;SDS011;48391;49.184;2.418;2023-04-25T09:20:23;7.22;;;1.88;;
62353;SDS011;48391;49.184;2.418;2023-04-25T09:22:59;7.00;;;3.25;;
62353;SDS011;48391;49.184;2.418;2023-04-25T09:25:27;4.15;;;2.72;;
62353;SDS011;48391;49.184;2.418;2023-04-25T09:28:00;3.95;;;2.38;;
62353;SDS011;48391;49.184;2.418;2023-04-25T09:30:33;9.05;;;3.15;;
62353;SDS011;48391;49.184;2.418;2023-04-25T09:35:25;4.22;;;2.45;;
62353;SDS011;48391;49.184;2.418;2023-04-25T09:37:51;2.85;;;1.42;;
62353;SDS011;48391;49.184;2.418;2023-04-25T09:40:17;8.70;;;4.05;;
62353;SDS011;48391;49.184;2.418;2023-04-25T09:42:43;4.72;;;2.65;;
62353;SDS011;48391;49.184;2.418;2023-04-25T09:45:12;7.03;;;2.75;;
62353;SDS011;48391;49.184;2.418;2023-04-25T09:47:40;5.55;;;3.00;;
62353;SDS011;48391;49.184;2.418;2023-04-25T09:50:16;13.68;;;3.85;;
62353;SDS011;48391;49.184;2.418;2023-04-25T09:52:42;7.22;;;3.28;;
62353;SDS011;48391;49.184;2.418;2023-04-25T09:55:08;6.07;;;2.75;;
62353;SDS011;48391;49.184;2.418;2023-04-25T09:57:35;4.70;;;2.45;;
62353;SDS011;48391;49.184;2.418;2023-04-25T10:00:04;6.90;;;3.42;;
62353;SDS011;48391;49.184;2.418;2023-04-25T10:02:34;10.03;;;2.67;;
62353;SDS011;48391;49.184;2.418;2023-04-25T10:05:00;3.85;;;2.53;;
62353;SDS011;48391;49.184;2.418;2023-04-25T10:07:29;6.60;;;2.38;;
62353;SDS011;48391;49.184;2.418;2023-04-25T10:09:59;6.97;;;2.95;;
62353;SDS011;48391;49.184;2.418;2023-04-25T10:12:27;10.30;;;3.13;;
62353;SDS011;48391;49.184;2.418;2023-04-25T10:14:54;7.82;;;2.30;;
62353;SDS011;48391;49.184;2.418;2023-04-25T10:17:20;2.95;;;2.22;;
62353;SDS011;48391;49.184;2.418;2023-04-25T10:19:47;5.75;;;2.40;;
62353;SDS011;48391;49.184;2.418;2023-04-25T10:24:58;6.65;;;3.08;;
62353;SDS011;48391;49.184;2.418;2023-04-25T10:27:26;6.38;;;2.83;;
62353;SDS011;48391;49.184;2.418;2023-04-25T10:30:00;6.55;;;2.58;;
62353;SDS011;48391;49.184;2.418;2023-04-25T10:32:30;3.90;;;2.35;;
62353;SDS011;48391;49.184;2.418;2023-04-25T10:34:57;7.30;;;4.20;;
62353;SDS011;48391;49.184;2.418;2023-04-25T10:37:24;5.72;;;3.13;;
62353;SDS011;48391;49.184;2.418;2023-04-25T10:39:50;7.75;;;2.95;;
62353;SDS011;48391;49.184;2.418;2023-04-25T10:42:18;8.05;;;3.50;;
62353;SDS011;48391;49.184;2.418;2023-04-25T10:45:00;10.57;;;4.30;;
62353;SDS011;48391;49.184;2.418;2023-04-25T10:47:34;6.20;;;2.45;;
62353;SDS011;48391;49.184;2.418;2023-04-25T10:50:05;5.00;;;3.15;;
62353;SDS011;48391;49.184;2.418;2023-04-25T10:52:32;4.38;;;2.40;;
62353;SDS011;48391;49.184;2.418;2023-04-25T10:54:58;8.93;;;3.38;;
62353;SDS011;48391;49.184;2.418;2023-04-25T11:00:08;6.25;;;2.75;;
62353;SDS011;48391;49.184;2.418;2023-04-25T11:02:42;9.35;;;3.15;;
62353;SDS011;48391;49.184;2.418;2023-04-25T11:05:10;7.40;;;3.53;;
62353;SDS011;48391;49.184;2.418;2023-04-25T11:10:08;5.30;;;2.40;;
62353;SDS011;48391;49.184;2.418;2023-04-25T11:12:34;5.07;;;2.35;;
62353;SDS011;48391;49.184;2.418;2023-04-25T11:15:04;6.05;;;2.30;;
62353;SDS011;48391;49.184;2.418;2023-04-25T11:17:30;4.95;;;2.08;;
62353;SDS011;48391;49.184;2.418;2023-04-25T11:19:57;2.67;;;1.90;;
62353;SDS011;48391;49.184;2.418;2023-04-25T11:22:23;5.00;;;2.30;;
62353;SDS011;48391;49.184;2.418;2023-04-25T11:24:49;4.72;;;1.90;;
62353;SDS011;48391;49.184;2.418;2023-04-25T11:27:16;3.45;;;1.40;;
62353;SDS011;48391;49.184;2.418;2023-04-25T11:29:42;3.28;;;2.03;;
62353;SDS011;48391;49.184;2.418;2023-04-25T11:32:08;5.93;;;2.17;;
62353;SDS011;48391;49.184;2.418;2023-04-25T11:34:34;4.10;;;2.60;;
62353;SDS011;48391;49.184;2.418;2023-04-25T11:37:01;5.75;;;1.88;;
62353;SDS011;48391;49.184;2.418;2023-04-25T11:39:27;2.45;;;1.75;;
62353;SDS011;48391;49.184;2.418;2023-04-25T11:41:53;6.57;;;2.53;;
62353;SDS011;48391;49.184;2.418;2023-04-25T11:44:20;5.93;;;2.53;;
62353;SDS011;48391;49.184;2.418;2023-04-25T11:46:46;4.00;;;2.17;;
62353;SDS011;48391;49.184;2.418;2023-04-25T11:49:13;2.90;;;1.73;;
62353;SDS011;48391;49.184;2.418;2023-04-25T11:51:42;7.10;;;2.72;;
62353;SDS011;48391;49.184;2.418;2023-04-25T11:54:08;7.18;;;2.50;;
62353;SDS011;48391;49.184;2.418;2023-04-25T11:56:35;5.32;;;1.95;;
62353;SDS011;48391;49.184;2.418;2023-04-25T11:59:02;3.38;;;1.73;;
62353;SDS011;48391;49.184;2.418;2023-04-25T12:01:32;3.10;;;1.83;;
62353;SDS011;48391;49.184;2.418;2023-04-25T12:03:58;3.03;;;1.38;;
62353;SDS011;48391;49.184;2.418;2023-04-25T12:06:28;2.72;;;1.20;;
62353;SDS011;48391;49.184;2.418;2023-04-25T12:09:01;3.03;;;1.45;;
62353;SDS011;48391;49.184;2.418;2023-04-25T12:11:28;1.45;;;1.10;;
62353;SDS011;48391;49.184;2.418;2023-04-25T12:13:55;4.15;;;1.05;;
62353;SDS011;48391;49.184;2.418;2023-04-25T12:16:21;2.72;;;1.30;;
62353;SDS011;48391;49.184;2.418;2023-04-25T12:18:48;1.83;;;1.10;;
62353;SDS011;48391;49.184;2.418;2023-04-25T12:21:17;2.00;;;1.27;;
62353;SDS011;48391;49.184;2.418;2023-04-25T12:23:43;2.65;;;1.38;;
62353;SDS011;48391;49.184;2.418;2023-04-25T12:26:09;2.13;;;1.70;;
62353;SDS011;48391;49.184;2.418;2023-04-25T12:28:36;1.67;;;1.05;;
62353;SDS011;48391;49.184;2.418;2023-04-25T12:31:05;2.13;;;1.20;;
62353;SDS011;48391;49.184;2.418;2023-04-25T12:33:35;3.30;;;1.75;;
62353;SDS011;48391;49.184;2.418;2023-04-25T12:36:02;2.47;;;1.17;;
62353;SDS011;48391;49.184;2.418;2023-04-25T12:38:36;5.15;;;1.67;;
62353;SDS011;48391;49.184;2.418;2023-04-25T12:41:02;6.22;;;2.17;;
62353;SDS011;48391;49.184;2.418;2023-04-25T12:43:28;3.55;;;1.67;;
62353;SDS011;48391;49.184;2.418;2023-04-25T12:45:54;5.43;;;2.33;;
62353;SDS011;48391;49.184;2.418;2023-04-25T12:48:21;2.53;;;1.17;;
62353;SDS011;48391;49.184;2.418;2023-04-25T12:50:48;4.20;;;1.33;;
62353;SDS011;48391;49.184;2.418;2023-04-25T12:53:15;2.28;;;1.17;;
62353;SDS011;48391;49.184;2.418;2023-04-25T12:55:41;4.38;;;1.50;;
62353;SDS011;48391;49.184;2.418;2023-04-25T12:58:07;2.42;;;1.05;;
62353;SDS011;48391;49.184;2.418;2023-04-25T13:00:33;2.00;;;1.30;;
62353;SDS011;48391;49.184;2.418;2023-04-25T13:02:59;1.23;;;0.90;;
62353;SDS011;48391;49.184;2.418;2023-04-25T13:05:25;2.13;;;1.00;;
62353;SDS011;48391;49.184;2.418;2023-04-25T13:07:51;2.88;;;2.22;;
62353;SDS011;48391;49.184;2.418;2023-04-25T13:10:17;4.18;;;1.65;;
62353;SDS011;48391;49.184;2.418;2023-04-25T18:43:28;0.68;;;0.63;;
62353;SDS011;48391;49.184;2.418;2023-04-25T18:45:54;0.93;;;0.50;;
62353;SDS011;48391;49.184;2.418;2023-04-25T18:48:21;1.70;;;1.10;;
62353;SDS011;48391;49.184;2.418;2023-04-25T18:50:47;2.80;;;1.20;;
62353;SDS011;48391;49.184;2.418;2023-04-25T18:53:13;1.17;;;0.90;;
62353;SDS011;48391;49.184;2.418;2023-04-25T18:55:39;0.80;;;0.80;;
62353;SDS011;48391;49.184;2.418;2023-04-25T18:58:05;1.77;;;0.60;;
62353;SDS011;48391;49.184;2.418;2023-04-25T19:00:32;0.95;;;0.90;;
62353;SDS011;48391;49.184;2.418;2023-04-25T19:02:58;1.02;;;0.93;;
62353;SDS011;48391;49.184;2.418;2023-04-25T19:05:28;1.15;;;0.80;;
62353;SDS011;48391;49.184;2.418;2023-04-25T19:07:55;2.08;;;1.30;;
62353;SDS011;48391;49.184;2.418;2023-04-25T19:10:21;2.28;;;1.70;;
62353;SDS011;48391;49.184;2.418;2023-04-25T19:12:48;2.38;;;1.67;;
62353;SDS011;48391;49.184;2.418;2023-04-25T19:15:14;1.70;;;1.38;;
62353;SDS011;48391;49.184;2.418;2023-04-25T19:17:40;3.53;;;0.90;;
62353;SDS011;48391;49.184;2.418;2023-04-25T19:20:08;1.95;;;1.50;;
62353;SDS011;48391;49.184;2.418;2023-04-25T19:22:35;0.98;;;0.68;;
62353;SDS011;48391;49.184;2.418;2023-04-25T19:25:01;1.30;;;0.63;;
62353;SDS011;48391;49.184;2.418;2023-04-25T19:27:27;1.35;;;0.80;;
62353;SDS011;48391;49.184;2.418;2023-04-25T19:29:53;0.55;;;0.52;;
62353;SDS011;48391;49.184;2.418;2023-04-25T19:34:49;0.85;;;0.73;;
62353;SDS011;48391;49.184;2.418;2023-04-25T19:37:16;1.00;;;0.60;;
62353;SDS011;48391;49.184;2.418;2023-04-25T19:39:42;1.70;;;1.08;;
62353;SDS011;48391;49.184;2.418;2023-04-25T19:42:11;1.35;;;0.55;;
62353;SDS011;48391;49.184;2.418;2023-04-25T19:44:37;0.77;;;0.40;;
62353;SDS011;48391;49.184;2.418;2023-04-25T19:47:04;0.80;;;0.57;;
62353;SDS011;48391;49.184;2.418;2023-04-25T19:49:30;0.60;;;0.52;;
62353;SDS011;48391;49.184;2.418;2023-04-25T19:51:56;1.35;;;0.77;;
62353;SDS011;48391;49.184;2.418;2023-04-25T19:54:22;1.02;;;0.63;;
62353;SDS011;48391;49.184;2.418;2023-04-25T19:56:48;1.55;;;0.77;;
62353;SDS011;48391;49.184;2.418;2023-04-25T19:59:14;0.77;;;0.47;;
62353;SDS011;48391;49.184;2.418;2023-04-25T20:01:40;1.83;;;1.17;;
62353;SDS011;48391;49.184;2.418;2023-04-25T20:04:06;1.67;;;1.35;;
62353;SDS011;48391;49.184;2.418;2023-04-25T20:06:32;2.90;;;2.05;;
62353;SDS011;48391;49.184;2.418;2023-04-25T20:08:58;1.40;;;1.10;;
62353;SDS011;48391;49.184;2.418;2023-04-25T20:11:25;5.53;;;2.42;;
62353;SDS011;48391;49.184;2.418;2023-04-25T20:13:53;2.40;;;1.98;;
62353;SDS011;48391;49.184;2.418;2023-04-25T20:16:19;2.63;;;2.15;;
62353;SDS011;48391;49.184;2.418;2023-04-25T20:18:46;4.15;;;2.10;;
62353;SDS011;48391;49.184;2.418;2023-04-25T20:21:12;2.75;;;1.88;;
62353;SDS011;48391;49.184;2.418;2023-04-25T20:23:38;3.85;;;2.78;;
62353;SDS011;48391;49.184;2.418;2023-04-25T20:26:06;3.45;;;2.05;;
62353;SDS011;48391;49.184;2.418;2023-04-25T20:28:32;2.42;;;2.13;;